KPUB/PUB METAR and TAF weather

Enter ICAO airport designator
Station Type Date Time Source
KPUB METAR 2021/01/17 19:53 UTC NOAA

KPUB 171953Z 15009KT 10SM CLR 07/M09 A3000 RMK AO2 SLP170 T00671089


Station Type Date Time Source
KPUB Decoded METAR 2021/01/17 19:53 UTC NOAA

PUEBLO MEMORIAL AIRPORT, CO, United States (KPUB) 38-17N 104-30W 1420M
Jan 17, 2021 - 02:53 PM EST / 2021.01.17 1953 UTC
Wind: from the SSE (150 degrees) at 10 MPH (9 KT):0
Visibility: 10 mile(s):0
Sky conditions: clear
Temperature: 44.1 F (6.7 C)
Dew Point: 16.0 F (-8.9 C)
Relative Humidity: 31%
Pressure (altimeter): 30 in. Hg (1015 hPa)
ob: KPUB 171953Z 15009KT 10SM CLR 07/M09 A3000 RMK AO2 SLP170 T00671089
cycle: 20

Station Type Date Time Source
KPUB TAF 2021/01/17 18:22 UTC NOAA

TAF KPUB 171720Z 1718/1818 10008KT P6SM SCT200
FM180200 36005KT P6SM SCT200
FM180600 32009KT P6SM BKN150
FM181600 06006KT P6SM BKN100

Example: see airport list